createdAt,value
2023-02-16T00:02:57.056Z,16.70
2023-02-16T00:07:00.103Z,12.77
2023-02-16T00:11:21.514Z,12.90
2023-02-16T00:15:24.648Z,10.63
2023-02-16T00:19:36.083Z,10.18
2023-02-16T00:23:39.026Z,12.10
2023-02-16T00:27:41.960Z,12.55
2023-02-16T00:31:45.323Z,12.07
2023-02-16T00:35:48.897Z,12.73
2023-02-16T00:39:52.257Z,12.77
2023-02-16T00:43:55.858Z,12.20
2023-02-16T00:47:58.589Z,13.38
2023-02-16T00:52:01.958Z,15.18
2023-02-16T00:56:05.267Z,14.18
2023-02-16T01:00:41.515Z,12.02
2023-02-16T01:04:44.508Z,12.45
2023-02-16T01:09:05.757Z,16.20
2023-02-16T01:13:10.478Z,13.77
2023-02-16T01:17:13.221Z,13.80
2023-02-16T01:21:16.151Z,11.68
2023-02-16T01:25:19.007Z,11.90
2023-02-16T01:29:22.451Z,12.70
2023-02-16T01:33:25.681Z,16.00
2023-02-16T01:37:28.952Z,15.55
2023-02-16T01:41:56.781Z,15.75
2023-02-16T01:46:17.192Z,12.55
2023-02-16T01:50:25.601Z,12.23
2023-02-16T01:54:52.945Z,12.70
2023-02-16T01:59:00.722Z,12.32
2023-02-16T02:03:30.973Z,12.63
2023-02-16T02:08:07.690Z,16.55
2023-02-16T02:12:20.870Z,13.80
2023-02-16T02:16:25.825Z,13.13
2023-02-16T02:21:16.138Z,16.25
2023-02-16T02:25:25.438Z,13.48
2023-02-16T02:30:00.568Z,12.57
2023-02-16T02:34:28.486Z,13.80
2023-02-16T02:38:45.834Z,15.07
2023-02-16T02:42:52.878Z,12.93
2023-02-16T02:46:56.918Z,13.40
2023-02-16T02:51:27.459Z,13.48
2023-02-16T02:55:58.718Z,13.35
2023-02-16T03:00:41.507Z,14.00
2023-02-16T03:04:47.027Z,13.20
2023-02-16T03:08:56.323Z,13.90
2023-02-16T03:13:01.691Z,14.93
2023-02-16T03:17:31.451Z,15.68
2023-02-16T03:21:54.062Z,13.00
2023-02-16T03:26:16.095Z,12.52
2023-02-16T03:30:20.980Z,13.77
2023-02-16T03:34:25.206Z,15.82
2023-02-16T03:38:28.876Z,14.82
2023-02-16T03:42:33.526Z,16.23
2023-02-16T03:46:36.398Z,14.60
2023-02-16T03:50:39.295Z,14.32
2023-02-16T03:54:42.116Z,14.13
2023-02-16T03:58:44.923Z,16.45
2023-02-16T04:02:50.727Z,15.90
2023-02-16T04:06:53.602Z,17.25
2023-02-16T04:10:57.518Z,16.45
2023-02-16T04:15:00.332Z,15.57
2023-02-16T04:19:03.188Z,16.35
2023-02-16T04:23:06.629Z,16.77
2023-02-16T04:27:09.429Z,15.18
2023-02-16T04:31:12.541Z,15.50
2023-02-16T04:35:16.141Z,18.33
2023-02-16T04:39:19.187Z,16.88
2023-02-16T04:43:21.886Z,15.85
2023-02-16T04:47:26.937Z,15.48
2023-02-16T04:51:29.637Z,16.08
2023-02-16T04:55:32.598Z,19.08
2023-02-16T04:59:35.558Z,16.08
2023-02-16T05:03:38.360Z,14.52
2023-02-16T05:07:41.216Z,15.63
2023-02-16T05:12:02.414Z,15.68
2023-02-16T05:16:05.524Z,16.02
2023-02-16T05:20:08.918Z,13.80
2023-02-16T05:24:12.209Z,17.70
2023-02-16T05:28:15.139Z,16.02
2023-02-16T05:32:18.537Z,17.20
2023-02-16T05:36:22.415Z,17.20
2023-02-16T05:40:25.201Z,20.55
2023-02-16T05:44:28.045Z,16.65
2023-02-16T05:48:31.097Z,16.50
2023-02-16T05:52:33.940Z,15.98
2023-02-16T05:56:37.371Z,15.20
2023-02-16T06:00:40.248Z,13.45
2023-02-16T06:04:43.036Z,14.60
2023-02-16T06:08:45.901Z,13.02
2023-02-16T06:12:48.911Z,13.63
2023-02-16T06:16:51.924Z,12.50
2023-02-16T06:21:00.030Z,13.40
2023-02-16T06:25:04.212Z,13.80
2023-02-16T06:29:07.138Z,15.50
2023-02-16T06:33:09.881Z,16.80
2023-02-16T06:37:12.683Z,21.95
2023-02-16T06:41:31.957Z,26.67
2023-02-16T06:45:34.939Z,33.03
2023-02-16T06:49:37.705Z,36.15
2023-02-16T06:53:40.791Z,54.58
2023-02-16T06:57:43.638Z,51.75
2023-02-16T07:01:46.441Z,36.65
2023-02-16T07:05:50.224Z,33.90
2023-02-16T07:09:53.156Z,35.08
2023-02-16T07:13:56.207Z,26.80
2023-02-16T07:17:59.214Z,22.90
2023-02-16T07:22:02.861Z,23.35
2023-02-16T07:26:05.879Z,22.08
2023-02-16T07:30:11.621Z,22.08
2023-02-16T07:34:18.178Z,24.17
2023-02-16T07:38:22.013Z,30.25
2023-02-16T07:42:24.665Z,28.90
2023-02-16T07:46:31.003Z,29.77
2023-02-16T07:50:36.675Z,28.13
2023-02-16T07:54:39.733Z,21.13
2023-02-16T07:58:42.517Z,23.65
2023-02-16T08:02:45.398Z,21.83
2023-02-16T08:06:48.763Z,16.80
2023-02-16T08:10:51.639Z,14.00
2023-02-16T08:14:54.437Z,14.48
2023-02-16T08:19:00.117Z,12.40
2023-02-16T08:23:02.945Z,15.30
2023-02-16T08:27:06.354Z,14.50
2023-02-16T08:31:10.250Z,16.05
2023-02-16T08:35:13.632Z,17.80
2023-02-16T08:39:20.022Z,16.40
2023-02-16T08:43:22.878Z,17.40
2023-02-16T08:47:25.917Z,18.20
2023-02-16T08:51:34.871Z,17.88
2023-02-16T08:55:38.509Z,17.83
2023-02-16T08:59:41.326Z,16.60
2023-02-16T09:03:46.322Z,17.23
2023-02-16T09:07:49.961Z,19.05
2023-02-16T09:11:52.919Z,16.52
2023-02-16T09:15:55.821Z,17.35
2023-02-16T09:19:58.483Z,16.55
2023-02-16T09:24:04.564Z,17.25
2023-02-16T09:28:09.648Z,17.13
2023-02-16T09:32:14.920Z,17.08
2023-02-16T09:36:18.383Z,15.60
2023-02-16T09:40:21.322Z,17.10
2023-02-16T09:44:55.276Z,19.27
2023-02-16T09:49:01.487Z,24.02
2023-02-16T09:53:30.297Z,26.80
2023-02-16T09:58:05.752Z,23.65
2023-02-16T10:02:32.749Z,21.85
2023-02-16T10:07:14.384Z,21.75
2023-02-16T10:11:46.806Z,25.60
2023-02-16T10:15:52.992Z,22.02
2023-02-16T10:20:13.637Z,25.70
2023-02-16T10:24:16.565Z,25.60
2023-02-16T10:28:38.174Z,26.33
2023-02-16T10:32:56.843Z,25.20
2023-02-16T10:37:27.513Z,25.67
2023-02-16T10:41:44.583Z,25.05
2023-02-16T10:45:52.543Z,25.38
2023-02-16T10:49:56.292Z,24.25
2023-02-16T10:54:10.415Z,22.67
2023-02-16T10:58:22.720Z,21.98
2023-02-16T11:02:29.062Z,23.45
2023-02-16T11:06:32.112Z,22.45
2023-02-16T11:10:50.487Z,23.27
2023-02-16T11:15:21.857Z,20.95
2023-02-16T11:19:25.998Z,23.70
2023-02-16T11:23:31.097Z,20.67
2023-02-16T11:27:33.803Z,23.95
2023-02-16T11:31:40.768Z,21.75
2023-02-16T11:35:44.936Z,24.27
2023-02-16T11:39:55.291Z,20.67
2023-02-16T11:43:58.398Z,21.25
2023-02-16T11:48:24.788Z,20.33
2023-02-16T11:52:30.713Z,19.38
2023-02-16T11:56:35.049Z,16.77
2023-02-16T12:00:38.308Z,18.20
2023-02-16T12:04:47.206Z,12.52
2023-02-16T12:09:06.338Z,14.50
2023-02-16T12:13:25.754Z,15.90
2023-02-16T12:18:11.892Z,13.60
2023-02-16T12:22:38.756Z,14.73
2023-02-16T12:27:02.823Z,14.15
2023-02-16T12:31:17.206Z,12.55
2023-02-16T12:36:04.481Z,13.63
2023-02-16T12:40:20.289Z,10.93
2023-02-16T12:44:37.472Z,11.32
2023-02-16T12:48:56.082Z,12.90
2023-02-16T12:53:14.168Z,11.35
2023-02-16T12:57:23.073Z,10.45
2023-02-16T13:01:33.827Z,10.68
2023-02-16T13:05:38.113Z,10.50
2023-02-16T13:09:55.386Z,10.82
2023-02-16T13:14:04.447Z,11.32
2023-02-16T13:18:23.982Z,14.45
2023-02-16T13:22:32.861Z,13.23
2023-02-16T13:27:03.513Z,11.50
2023-02-16T13:31:35.468Z,14.02
2023-02-16T13:35:53.591Z,11.13
2023-02-16T13:40:14.880Z,11.23
2023-02-16T13:44:26.098Z,11.30
2023-02-16T13:48:47.752Z,11.25
2023-02-16T13:52:53.059Z,11.23
2023-02-16T13:56:56.148Z,10.40
2023-02-16T14:00:59.252Z,10.82
2023-02-16T14:05:10.015Z,9.82
2023-02-16T14:09:16.096Z,10.90
2023-02-16T14:13:28.729Z,10.38
2023-02-16T14:17:35.872Z,9.50
2023-02-16T14:21:44.177Z,10.80
2023-02-16T14:25:47.019Z,10.87
2023-02-16T14:29:59.508Z,9.00
2023-02-16T14:34:19.610Z,9.95
2023-02-16T14:38:40.771Z,10.40
2023-02-16T14:42:55.466Z,9.93
2023-02-16T14:47:47.339Z,10.63
2023-02-16T14:52:24.315Z,10.27
2023-02-16T14:56:37.210Z,10.00
2023-02-16T15:00:53.890Z,11.30
2023-02-16T15:04:57.186Z,10.07
2023-02-16T15:09:02.905Z,11.50
2023-02-16T15:13:06.140Z,10.23
2023-02-16T15:17:10.567Z,11.05
2023-02-16T15:21:31.582Z,10.50
2023-02-16T15:25:39.807Z,9.18
2023-02-16T15:29:42.487Z,10.65
2023-02-16T15:33:58.779Z,10.25
2023-02-16T15:38:06.494Z,10.85
2023-02-16T15:42:15.715Z,11.40
2023-02-16T15:46:38.058Z,11.55
2023-02-16T15:50:42.830Z,10.38
2023-02-16T15:54:48.633Z,11.27
2023-02-16T15:58:54.890Z,10.13
2023-02-16T16:03:00.841Z,12.35
2023-02-16T16:07:05.985Z,14.90
2023-02-16T16:11:09.168Z,13.73
2023-02-16T16:15:19.548Z,13.25
2023-02-16T16:19:42.733Z,40.67
2023-02-16T16:24:04.725Z,13.80
2023-02-16T16:28:14.098Z,13.23
2023-02-16T16:32:27.793Z,12.07
2023-02-16T16:36:37.531Z,12.40
2023-02-16T16:40:40.572Z,12.95
2023-02-16T16:45:07.029Z,11.60
2023-02-16T16:49:16.455Z,12.82
2023-02-16T16:53:41.637Z,10.75
2023-02-16T16:57:44.984Z,11.07
2023-02-16T17:01:50.863Z,12.05
2023-02-16T17:05:54.196Z,11.90
2023-02-16T17:09:57.613Z,10.82
2023-02-16T17:14:14.654Z,11.23
2023-02-16T17:18:21.471Z,10.48
2023-02-16T17:26:27.420Z,9.10
2023-02-16T17:30:31.238Z,10.98
2023-02-16T17:34:35.260Z,10.30
2023-02-16T17:38:38.016Z,8.88
2023-02-16T17:42:41.796Z,9.52
2023-02-16T17:46:46.290Z,9.80
2023-02-16T17:50:51.918Z,10.75
2023-02-16T17:54:55.086Z,13.00
2023-02-16T17:58:58.175Z,9.80
2023-02-16T18:03:00.972Z,9.88
2023-02-16T18:07:03.678Z,11.30
2023-02-16T18:11:06.777Z,11.07
2023-02-16T18:15:10.431Z,11.70
2023-02-16T18:19:14.923Z,12.18
2023-02-16T18:23:17.734Z,10.30
2023-02-16T18:27:21.641Z,11.40
2023-02-16T18:31:24.510Z,12.10
2023-02-16T18:35:27.617Z,10.02
2023-02-16T18:39:31.473Z,9.05
2023-02-16T18:43:35.869Z,10.32
2023-02-16T18:47:39.186Z,10.25
2023-02-16T18:51:42.051Z,10.85
2023-02-16T18:55:44.837Z,10.48
2023-02-16T18:59:47.992Z,9.20
2023-02-16T19:03:50.719Z,10.48
2023-02-16T19:07:53.453Z,9.65
2023-02-16T19:11:56.544Z,9.15
2023-02-16T19:15:59.300Z,9.88
2023-02-16T19:20:02.292Z,9.95
2023-02-16T19:24:05.873Z,9.10
2023-02-16T19:28:09.316Z,10.30
2023-02-16T19:32:11.993Z,9.75
2023-02-16T19:36:15.806Z,9.27
2023-02-16T19:40:18.800Z,9.73
2023-02-16T19:44:21.986Z,10.15
2023-02-16T19:48:24.661Z,11.68
2023-02-16T19:52:27.382Z,16.65
2023-02-16T19:56:30.256Z,13.95
2023-02-16T20:00:33.049Z,10.38
2023-02-16T20:04:35.866Z,11.07
2023-02-16T20:08:38.723Z,11.25
2023-02-16T20:12:41.733Z,10.23
2023-02-16T20:16:45.220Z,9.95
2023-02-16T20:20:59.475Z,9.15
2023-02-16T20:25:02.741Z,9.85
2023-02-16T20:29:07.460Z,8.27
2023-02-16T20:33:10.358Z,8.55
2023-02-16T20:37:13.279Z,8.68
2023-02-16T20:41:19.328Z,8.93
2023-02-16T20:45:22.296Z,8.38
2023-02-16T20:49:25.460Z,8.93
2023-02-16T20:53:29.695Z,8.13
2023-02-16T20:57:35.105Z,9.25
2023-02-16T21:01:41.683Z,12.93
2023-02-16T21:05:44.758Z,16.25
2023-02-16T21:09:48.495Z,14.30
2023-02-16T21:13:51.864Z,13.23
2023-02-16T21:17:55.022Z,12.57
2023-02-16T21:21:57.982Z,11.15
2023-02-16T21:26:02.691Z,11.88
2023-02-16T21:30:06.676Z,9.65
2023-02-16T21:34:11.661Z,9.50
2023-02-16T21:38:15.211Z,9.30
2023-02-16T21:42:18.538Z,7.65
2023-02-16T21:46:21.819Z,7.03
2023-02-16T21:50:25.310Z,6.95
2023-02-16T21:54:48.209Z,7.93
2023-02-16T21:58:51.247Z,8.25
2023-02-16T22:02:54.927Z,8.25
2023-02-16T22:06:58.151Z,11.93
2023-02-16T22:11:09.345Z,12.60
2023-02-16T22:15:12.104Z,10.73
2023-02-16T22:19:17.142Z,8.77
2023-02-16T22:23:20.005Z,9.48
2023-02-16T22:27:22.867Z,8.15
2023-02-16T22:31:27.257Z,7.72
2023-02-16T22:35:30.141Z,8.23
2023-02-16T22:39:33.084Z,7.32
2023-02-16T22:43:36.364Z,9.80
2023-02-16T22:47:42.670Z,8.98
2023-02-16T22:51:47.555Z,9.48
2023-02-16T22:55:50.245Z,9.55
2023-02-16T22:59:53.556Z,9.65
2023-02-16T23:03:57.974Z,8.23
2023-02-16T23:08:00.906Z,9.55
2023-02-16T23:12:03.811Z,9.93
2023-02-16T23:16:10.774Z,9.02
2023-02-16T23:20:13.603Z,9.23
2023-02-16T23:24:19.879Z,9.45
2023-02-16T23:28:22.686Z,8.20
2023-02-16T23:32:25.562Z,8.70
2023-02-16T23:36:28.389Z,9.27
2023-02-16T23:40:31.184Z,7.15
2023-02-16T23:44:35.650Z,8.45
2023-02-16T23:48:41.353Z,8.15
2023-02-16T23:52:45.070Z,8.43
2023-02-16T23:56:47.799Z,8.35
